createdAt,value
2023-10-13T00:00:37.296Z,17.49
2023-10-13T00:04:43.406Z,17.45
2023-10-13T00:08:46.944Z,17.43
2023-10-13T00:12:51.733Z,17.45
2023-10-13T00:17:05.461Z,17.49
2023-10-13T00:21:13.782Z,17.47
2023-10-13T00:25:27.256Z,17.46
2023-10-13T00:29:38.586Z,17.46
2023-10-13T00:33:42.881Z,17.47
2023-10-13T00:37:45.959Z,17.48
2023-10-13T00:41:53.430Z,17.51
2023-10-13T00:45:59.260Z,17.51
2023-10-13T00:50:02.328Z,17.49
2023-10-13T00:54:09.158Z,17.52
2023-10-13T00:58:13.963Z,17.51
2023-10-13T01:02:39.803Z,17.52
2023-10-13T01:06:42.652Z,17.51
2023-10-13T01:10:45.370Z,17.52
2023-10-13T01:14:48.510Z,17.49
2023-10-13T01:18:52.587Z,17.48
2023-10-13T01:22:57.433Z,17.46
2023-10-13T01:27:08.940Z,17.47
2023-10-13T01:31:13.589Z,17.52
2023-10-13T01:35:19.758Z,17.56
2023-10-13T01:39:27.626Z,17.59
2023-10-13T01:43:32.839Z,17.57
2023-10-13T01:47:37.494Z,17.59
2023-10-13T01:51:40.791Z,17.58
2023-10-13T01:55:45.056Z,17.60
2023-10-13T01:59:50.381Z,17.60
2023-10-13T02:04:02.649Z,17.58
2023-10-13T02:08:07.425Z,17.58
2023-10-13T02:12:10.444Z,17.59
2023-10-13T02:16:19.711Z,17.59
2023-10-13T02:20:25.171Z,17.58
2023-10-13T02:24:31.174Z,17.59
2023-10-13T02:28:36.154Z,17.55
2023-10-13T02:32:41.552Z,17.60
2023-10-13T02:36:49.839Z,17.58
2023-10-13T02:40:55.056Z,17.59
2023-10-13T02:44:58.898Z,17.61
2023-10-13T02:49:10.482Z,17.60
2023-10-13T02:53:19.580Z,17.58
2023-10-13T02:57:24.868Z,17.59
2023-10-13T03:01:30.198Z,17.59
2023-10-13T03:05:40.212Z,17.58
2023-10-13T03:09:51.279Z,17.56
2023-10-13T03:13:54.211Z,17.54
2023-10-13T03:17:59.665Z,17.56
2023-10-13T03:22:10.896Z,17.57
2023-10-13T03:26:18.022Z,17.57
2023-10-13T03:30:22.506Z,17.56
2023-10-13T03:34:30.820Z,17.58
2023-10-13T03:38:37.777Z,17.55
2023-10-13T03:42:41.579Z,17.53
2023-10-13T03:46:46.528Z,17.53
2023-10-13T03:50:58.895Z,17.54
2023-10-13T03:55:06.663Z,17.54
2023-10-13T03:59:18.829Z,17.54
2023-10-13T04:03:34.348Z,17.52
2023-10-13T04:08:02.874Z,17.51
2023-10-13T04:12:40.007Z,17.54
2023-10-13T04:16:53.107Z,17.53
2023-10-13T04:21:08.876Z,17.53
2023-10-13T04:25:27.633Z,17.54
2023-10-13T04:29:47.161Z,17.53
2023-10-13T04:34:03.225Z,17.46
2023-10-13T04:38:19.515Z,17.47
2023-10-13T04:42:40.180Z,17.46
2023-10-13T04:47:09.170Z,17.46
2023-10-13T04:51:45.522Z,17.45
2023-10-13T04:56:01.266Z,17.46
2023-10-13T05:00:29.179Z,17.46
2023-10-13T05:05:00.226Z,17.43
2023-10-13T05:09:21.080Z,17.40
2023-10-13T05:13:41.647Z,17.38
2023-10-13T05:18:01.997Z,17.37
2023-10-13T05:22:23.577Z,17.37
2023-10-13T05:26:43.822Z,17.33
2023-10-13T05:31:04.554Z,17.30
2023-10-13T05:35:25.259Z,17.30
2023-10-13T05:39:47.519Z,17.29
2023-10-13T05:44:08.064Z,17.28
2023-10-13T05:48:15.196Z,17.24
2023-10-13T05:52:41.225Z,17.23
2023-10-13T05:57:04.871Z,17.24
2023-10-13T06:01:25.431Z,17.26
2023-10-13T06:05:46.021Z,17.28
2023-10-13T06:10:07.405Z,17.27
2023-10-13T06:14:30.212Z,17.30
2023-10-13T06:18:50.794Z,17.36
2023-10-13T06:23:11.367Z,17.44
2023-10-13T06:27:31.955Z,17.57
2023-10-13T06:31:36.458Z,17.65
2023-10-13T06:35:40.169Z,17.74
2023-10-13T06:39:42.870Z,17.82
2023-10-13T06:43:45.559Z,17.87
2023-10-13T06:47:54.402Z,17.98
2023-10-13T06:52:01.571Z,18.06
2023-10-13T06:56:05.496Z,18.09
2023-10-13T07:00:13.350Z,18.16
2023-10-13T07:04:17.894Z,18.21
2023-10-13T07:08:21.779Z,18.27
2023-10-13T07:12:25.751Z,18.24
2023-10-13T07:16:36.316Z,18.31
2023-10-13T07:20:44.903Z,18.35
2023-10-13T07:24:49.626Z,18.37
2023-10-13T07:28:53.052Z,18.40
2023-10-13T07:32:59.007Z,18.37
2023-10-13T07:37:08.937Z,18.38
2023-10-13T07:41:16.692Z,18.42
2023-10-13T07:45:26.129Z,18.46
2023-10-13T07:49:37.756Z,18.51
2023-10-13T07:53:44.566Z,18.52
2023-10-13T07:57:56.138Z,18.53
2023-10-13T08:06:29.866Z,18.61
2023-10-13T08:10:37.834Z,18.58
2023-10-13T08:14:41.798Z,18.61
2023-10-13T08:18:44.713Z,18.57
2023-10-13T08:22:50.286Z,18.61
2023-10-13T08:27:22.066Z,18.60
2023-10-13T08:31:23.920Z,18.63
2023-10-13T08:35:36.217Z,18.68
2023-10-13T08:39:54.264Z,18.71
2023-10-13T08:44:04.597Z,18.75
2023-10-13T08:48:13.697Z,18.79
2023-10-13T08:52:47.796Z,18.89
2023-10-13T08:56:57.552Z,18.92
2023-10-13T09:01:13.210Z,19.00
2023-10-13T09:05:31.170Z,19.09
2023-10-13T09:09:43.701Z,19.21
2023-10-13T09:13:47.817Z,19.30
2023-10-13T09:17:55.307Z,19.44
2023-10-13T09:21:58.410Z,19.60
2023-10-13T09:26:11.053Z,19.78
2023-10-13T09:30:23.917Z,19.88
2023-10-13T09:34:30.351Z,20.04
2023-10-13T09:38:34.990Z,20.15
2023-10-13T09:42:39.181Z,20.16
2023-10-13T09:46:45.724Z,20.26
2023-10-13T09:50:50.455Z,20.33
2023-10-13T09:55:11.546Z,20.37
2023-10-13T09:59:20.213Z,20.47
2023-10-13T10:03:41.614Z,20.50
2023-10-13T10:07:45.015Z,20.58
2023-10-13T10:12:02.787Z,20.57
2023-10-13T10:16:15.434Z,20.54
2023-10-13T10:20:34.179Z,20.50
2023-10-13T10:24:37.824Z,20.58
2023-10-13T10:28:43.084Z,20.57
2023-10-13T10:32:50.025Z,20.61
2023-10-13T10:36:57.359Z,20.56
2023-10-13T10:41:02.355Z,20.58
2023-10-13T10:45:12.744Z,20.58
2023-10-13T10:49:19.862Z,20.62
2023-10-13T10:53:34.139Z,20.67
2023-10-13T10:57:39.400Z,20.70
2023-10-13T11:01:49.145Z,20.72
2023-10-13T11:05:52.081Z,20.80
2023-10-13T11:10:08.293Z,20.81
2023-10-13T11:14:24.126Z,20.82
2023-10-13T11:18:35.260Z,20.89
2023-10-13T11:22:43.147Z,20.90
2023-10-13T11:26:51.329Z,20.94
2023-10-13T11:30:54.522Z,20.98
2023-10-13T11:34:59.882Z,21.02
2023-10-13T11:39:03.261Z,21.11
2023-10-13T11:43:14.667Z,21.26
2023-10-13T11:51:52.174Z,21.49
2023-10-13T11:55:54.901Z,21.52
2023-10-13T12:00:20.421Z,21.52
2023-10-13T12:04:34.352Z,21.47
2023-10-13T12:08:50.330Z,21.55
2023-10-13T12:12:55.612Z,21.53
2023-10-13T12:17:04.947Z,21.63
2023-10-13T12:21:12.146Z,21.70
2023-10-13T12:25:26.527Z,21.73
2023-10-13T12:29:30.239Z,21.83
2023-10-13T12:33:38.859Z,21.85
2023-10-13T12:37:51.905Z,21.81
2023-10-13T12:42:13.727Z,21.85
2023-10-13T12:46:34.284Z,21.88
2023-10-13T12:50:45.411Z,22.00
2023-10-13T12:54:59.758Z,22.08
2023-10-13T12:59:10.167Z,22.16
2023-10-13T13:03:14.780Z,22.16
2023-10-13T13:07:17.926Z,22.23
2023-10-13T13:11:21.815Z,22.31
2023-10-13T13:15:26.889Z,22.37
2023-10-13T13:19:29.527Z,22.46
2023-10-13T13:23:32.548Z,22.54
2023-10-13T13:27:35.364Z,22.54
2023-10-13T13:31:44.492Z,22.56
2023-10-13T13:35:50.050Z,22.53
2023-10-13T13:39:54.125Z,22.55
2023-10-13T13:43:58.000Z,22.59
2023-10-13T13:48:08.885Z,22.61
2023-10-13T13:52:18.772Z,22.60
2023-10-13T13:56:22.002Z,22.61
2023-10-13T14:00:38.208Z,22.67
2023-10-13T14:04:47.716Z,22.66
2023-10-13T14:08:56.034Z,22.57
2023-10-13T14:13:13.984Z,22.53
2023-10-13T14:17:16.751Z,22.53
2023-10-13T14:21:25.201Z,22.57
2023-10-13T14:25:29.766Z,22.55
2023-10-13T14:29:32.606Z,22.55
2023-10-13T14:33:35.280Z,22.46
2023-10-13T14:37:39.368Z,22.40
2023-10-13T14:41:42.518Z,22.34
2023-10-13T14:45:45.237Z,22.23
2023-10-13T14:49:48.078Z,22.12
2023-10-13T14:53:57.223Z,22.05
2023-10-13T14:58:00.081Z,21.93
2023-10-13T15:02:03.966Z,21.85
2023-10-13T15:06:07.025Z,21.78
2023-10-13T15:10:15.868Z,21.76
2023-10-13T15:14:21.287Z,21.69
2023-10-13T15:18:24.388Z,21.62
2023-10-13T15:22:28.982Z,21.58
2023-10-13T15:26:38.595Z,21.57
2023-10-13T15:30:53.038Z,21.59
2023-10-13T15:34:56.886Z,21.59
2023-10-13T15:38:59.658Z,21.59
2023-10-13T15:43:06.541Z,21.64
2023-10-13T15:51:19.092Z,21.66
2023-10-13T15:55:21.818Z,21.62
2023-10-13T15:59:25.909Z,21.52
2023-10-13T16:03:30.915Z,21.52
2023-10-13T16:07:35.287Z,21.44
2023-10-13T16:11:38.049Z,21.31
2023-10-13T16:15:44.010Z,21.14
2023-10-13T16:19:50.098Z,20.94
2023-10-13T16:23:53.887Z,20.84
2023-10-13T16:27:58.759Z,20.72
2023-10-13T16:32:02.828Z,20.66
2023-10-13T16:36:09.655Z,20.56
2023-10-13T16:40:16.329Z,20.50
2023-10-13T16:44:19.130Z,20.44
2023-10-13T16:48:23.220Z,20.33
2023-10-13T16:52:25.947Z,20.26
2023-10-13T16:56:28.877Z,20.25
2023-10-13T17:00:33.271Z,20.22
2023-10-13T17:04:37.483Z,20.16
2023-10-13T17:08:41.125Z,20.19
2023-10-13T17:12:44.050Z,20.18
2023-10-13T17:16:48.628Z,20.17
2023-10-13T17:20:52.819Z,20.13
2023-10-13T17:24:55.726Z,20.08
2023-10-13T17:28:59.849Z,20.10
2023-10-13T17:33:02.951Z,20.09
2023-10-13T17:37:07.075Z,20.02
2023-10-13T17:41:14.268Z,20.00
2023-10-13T17:45:17.387Z,20.00
2023-10-13T17:49:20.302Z,19.97
2023-10-13T17:53:24.399Z,19.88
2023-10-13T17:57:29.027Z,19.78
2023-10-13T18:01:33.091Z,19.69
2023-10-13T18:05:36.784Z,19.49
2023-10-13T18:09:41.916Z,19.16
2023-10-13T18:13:46.762Z,18.72
2023-10-13T18:17:49.650Z,18.44
2023-10-13T18:21:52.434Z,18.18
2023-10-13T18:25:56.793Z,18.01
2023-10-13T18:29:59.490Z,17.86
2023-10-13T18:34:03.478Z,17.85
2023-10-13T18:38:06.747Z,17.79
2023-10-13T18:42:10.786Z,17.77
2023-10-13T18:46:14.887Z,17.78
2023-10-13T18:50:18.138Z,17.78
2023-10-13T18:54:20.820Z,17.78
2023-10-13T18:58:27.012Z,17.84
2023-10-13T19:02:31.663Z,17.87
2023-10-13T19:06:35.967Z,17.84
2023-10-13T19:10:39.012Z,17.84
2023-10-13T19:14:43.038Z,17.89
2023-10-13T19:18:47.681Z,17.89
2023-10-13T19:22:53.593Z,17.88
2023-10-13T19:26:56.848Z,17.91
2023-10-13T19:31:00.952Z,17.94
2023-10-13T19:35:03.712Z,17.96
2023-10-13T19:39:09.644Z,17.95
2023-10-13T19:43:23.199Z,17.92
2023-10-13T19:47:27.196Z,17.88
2023-10-13T19:51:29.967Z,17.84
2023-10-13T19:55:40.772Z,17.80
2023-10-13T19:59:43.473Z,17.79
2023-10-13T20:03:47.954Z,17.81
2023-10-13T20:07:50.978Z,17.81
2023-10-13T20:11:53.955Z,17.78
2023-10-13T20:15:56.791Z,17.80
2023-10-13T20:20:01.422Z,17.84
2023-10-13T20:24:05.796Z,17.82
2023-10-13T20:28:09.405Z,17.85
2023-10-13T20:32:15.765Z,17.90
2023-10-13T20:36:24.351Z,17.94
2023-10-13T20:40:28.483Z,18.00
2023-10-13T20:44:31.153Z,18.00
2023-10-13T20:48:34.045Z,18.03
2023-10-13T20:52:38.287Z,18.03
2023-10-13T20:56:41.470Z,18.06
2023-10-13T21:00:44.976Z,18.08
2023-10-13T21:04:48.039Z,18.05
2023-10-13T21:08:54.702Z,18.05
2023-10-13T21:12:58.945Z,18.05
2023-10-13T21:17:01.785Z,17.99
2023-10-13T21:21:09.078Z,17.96
2023-10-13T21:25:23.222Z,17.96
2023-10-13T21:29:26.061Z,17.96
2023-10-13T21:33:28.985Z,17.96
2023-10-13T21:37:32.703Z,17.93
2023-10-13T21:41:38.413Z,17.97
2023-10-13T21:45:41.524Z,18.01
2023-10-13T21:49:47.170Z,18.10
2023-10-13T21:53:50.099Z,18.18
2023-10-13T21:57:54.496Z,18.23
2023-10-13T22:01:57.267Z,18.27
2023-10-13T22:06:01.730Z,18.32
2023-10-13T22:10:06.956Z,18.34
2023-10-13T22:14:13.992Z,18.36
2023-10-13T22:18:16.982Z,18.38
2023-10-13T22:22:19.742Z,18.23
2023-10-13T22:26:23.508Z,18.08
2023-10-13T22:30:30.333Z,17.70
2023-10-13T22:34:33.395Z,17.51
2023-10-13T22:38:37.056Z,17.49
2023-10-13T22:42:40.120Z,17.42
2023-10-13T22:46:44.407Z,17.44
2023-10-13T22:50:47.122Z,17.40
2023-10-13T22:54:49.850Z,17.41
2023-10-13T22:58:52.850Z,17.41
2023-10-13T23:02:57.044Z,17.38
2023-10-13T23:07:00.380Z,17.22
2023-10-13T23:11:15.200Z,17.07
2023-10-13T23:15:18.149Z,17.04
2023-10-13T23:19:23.967Z,16.93
2023-10-13T23:23:27.120Z,16.88
2023-10-13T23:27:29.884Z,16.85
2023-10-13T23:31:33.122Z,16.79
2023-10-13T23:35:37.149Z,16.71
2023-10-13T23:39:40.715Z,16.45
2023-10-13T23:43:46.304Z,16.05
2023-10-13T23:47:49.107Z,15.65
2023-10-13T23:51:55.029Z,15.36
2023-10-13T23:56:02.638Z,15.18
